KPMD/PMD METAR and TAF weather

Enter ICAO airport designator
Station Type Date Time Source
KPMD METAR 2019/12/13 02:53 UTC NOAA

KPMD 130253Z 29009KT 10SM CLR 14/07 A3025 RMK AO2 SLP238 T01390067 51010


Station Type Date Time Source
KPMD Decoded METAR 2019/12/13 02:53 UTC NOAA

PALMDALE PROD FLIGHT PLANT, CA, United States (KPMD) 34-38N 118-05W 780M
Dec 12, 2019 - 09:53 PM EST / 2019.12.13 0253 UTC
Wind: from the WNW (290 degrees) at 10 MPH (9 KT):0
Visibility: 10 mile(s):0
Sky conditions: clear
Temperature: 57.0 F (13.9 C)
Dew Point: 44.1 F (6.7 C)
Relative Humidity: 61%
Pressure (altimeter): 30.25 in. Hg (1024 hPa)
Pressure tendency: 0.03 inches (1.0 hPa) higher than three hours ago
ob: KPMD 130253Z 29009KT 10SM CLR 14/07 A3025 RMK AO2 SLP238 T01390067 51010
cycle: 3

Station Type Date Time Source
KPMD TAF 2019/12/12 18:30 UTC NOAA

TAF KPMD 121729Z 1218/1318 04007KT P6SM BKN200
FM122100 32011KT P6SM BKN200
FM130300 26008KT P6SM BKN200

Example: see airport list